sensor_id;sensor_type;location;lat;lon;timestamp;temperature;humidity
74513;DHT22;62992;52.052;8.550;2023-07-24T00:01:55;17.80;99.90
74513;DHT22;62992;52.052;8.550;2023-07-24T00:04:40;17.80;99.90
74513;DHT22;62992;52.052;8.550;2023-07-24T00:07:24;17.70;99.90
74513;DHT22;62992;52.052;8.550;2023-07-24T00:10:08;17.80;99.90
74513;DHT22;62992;52.052;8.550;2023-07-24T00:12:53;17.70;99.90
74513;DHT22;62992;52.052;8.550;2023-07-24T00:15:38;17.70;99.90
74513;DHT22;62992;52.052;8.550;2023-07-24T00:18:22;17.70;99.90
74513;DHT22;62992;52.052;8.550;2023-07-24T00:21:06;17.70;99.90
74513;DHT22;62992;52.052;8.550;2023-07-24T00:23:51;17.70;99.90
74513;DHT22;62992;52.052;8.550;2023-07-24T00:26:35;17.70;99.90
74513;DHT22;62992;52.052;8.550;2023-07-24T00:29:19;17.70;99.90
74513;DHT22;62992;52.052;8.550;2023-07-24T00:32:03;17.70;99.90
74513;DHT22;62992;52.052;8.550;2023-07-24T00:34:47;17.70;99.90
74513;DHT22;62992;52.052;8.550;2023-07-24T00:37:32;17.70;99.90
74513;DHT22;62992;52.052;8.550;2023-07-24T00:40:16;17.70;99.90
74513;DHT22;62992;52.052;8.550;2023-07-24T00:43:00;17.70;99.90
74513;DHT22;62992;52.052;8.550;2023-07-24T00:45:44;17.70;99.90
74513;DHT22;62992;52.052;8.550;2023-07-24T00:48:29;17.70;99.90
74513;DHT22;62992;52.052;8.550;2023-07-24T00:51:13;17.70;99.90
74513;DHT22;62992;52.052;8.550;2023-07-24T00:53:58;17.70;99.90
74513;DHT22;62992;52.052;8.550;2023-07-24T00:56:44;17.70;99.90
74513;DHT22;62992;52.052;8.550;2023-07-24T00:59:28;17.70;99.90
74513;DHT22;62992;52.052;8.550;2023-07-24T01:02:12;17.70;99.90
74513;DHT22;62992;52.052;8.550;2023-07-24T01:04:57;17.70;99.90
74513;DHT22;62992;52.052;8.550;2023-07-24T01:07:41;17.70;99.90
74513;DHT22;62992;52.052;8.550;2023-07-24T01:10:25;17.70;99.90
74513;DHT22;62992;52.052;8.550;2023-07-24T01:13:13;17.70;99.90
74513;DHT22;62992;52.052;8.550;2023-07-24T01:16:00;17.70;99.90
74513;DHT22;62992;52.052;8.550;2023-07-24T01:18:46;17.70;99.90
74513;DHT22;62992;52.052;8.550;2023-07-24T01:21:33;17.60;99.90
74513;DHT22;62992;52.052;8.550;2023-07-24T01:27:23;17.60;99.90
74513;DHT22;62992;52.052;8.550;2023-07-24T01:30:08;17.60;99.90
74513;DHT22;62992;52.052;8.550;2023-07-24T01:32:52;17.50;99.90
74513;DHT22;62992;52.052;8.550;2023-07-24T01:35:36;17.50;99.90
74513;DHT22;62992;52.052;8.550;2023-07-24T01:38:22;17.50;99.90
74513;DHT22;62992;52.052;8.550;2023-07-24T01:41:07;17.50;99.90
74513;DHT22;62992;52.052;8.550;2023-07-24T01:43:52;17.40;99.90
74513;DHT22;62992;52.052;8.550;2023-07-24T01:46:36;17.40;99.90
74513;DHT22;62992;52.052;8.550;2023-07-24T01:49:20;17.40;99.90
74513;DHT22;62992;52.052;8.550;2023-07-24T01:52:04;17.30;99.90
74513;DHT22;62992;52.052;8.550;2023-07-24T01:54:48;17.30;99.90
74513;DHT22;62992;52.052;8.550;2023-07-24T01:57:33;17.40;99.90
74513;DHT22;62992;52.052;8.550;2023-07-24T02:00:17;17.40;99.90
74513;DHT22;62992;52.052;8.550;2023-07-24T02:03:01;17.40;99.90
74513;DHT22;62992;52.052;8.550;2023-07-24T02:05:49;17.40;99.90
74513;DHT22;62992;52.052;8.550;2023-07-24T02:08:33;17.30;99.90
74513;DHT22;62992;52.052;8.550;2023-07-24T02:11:17;17.40;99.90
74513;DHT22;62992;52.052;8.550;2023-07-24T02:14:01;17.30;99.90
74513;DHT22;62992;52.052;8.550;2023-07-24T02:16:45;17.30;99.90
74513;DHT22;62992;52.052;8.550;2023-07-24T02:19:30;17.30;99.90
74513;DHT22;62992;52.052;8.550;2023-07-24T02:22:14;17.30;99.90
74513;DHT22;62992;52.052;8.550;2023-07-24T02:24:58;17.30;99.90
74513;DHT22;62992;52.052;8.550;2023-07-24T02:27:42;17.30;99.90
74513;DHT22;62992;52.052;8.550;2023-07-24T02:30:27;17.30;99.90
74513;DHT22;62992;52.052;8.550;2023-07-24T02:33:11;17.30;99.90
74513;DHT22;62992;52.052;8.550;2023-07-24T02:35:55;17.30;99.90
74513;DHT22;62992;52.052;8.550;2023-07-24T02:38:39;17.30;99.90
74513;DHT22;62992;52.052;8.550;2023-07-24T02:41:23;17.20;99.90
74513;DHT22;62992;52.052;8.550;2023-07-24T02:44:07;17.30;99.90
74513;DHT22;62992;52.052;8.550;2023-07-24T02:46:52;17.30;99.90
74513;DHT22;62992;52.052;8.550;2023-07-24T02:49:36;17.20;99.90
74513;DHT22;62992;52.052;8.550;2023-07-24T02:52:20;17.20;99.90
74513;DHT22;62992;52.052;8.550;2023-07-24T02:55:04;17.20;99.90
74513;DHT22;62992;52.052;8.550;2023-07-24T02:57:48;17.20;99.90
74513;DHT22;62992;52.052;8.550;2023-07-24T03:00:33;17.20;99.90
74513;DHT22;62992;52.052;8.550;2023-07-24T03:03:17;17.20;99.90
74513;DHT22;62992;52.052;8.550;2023-07-24T03:06:02;17.20;99.90
74513;DHT22;62992;52.052;8.550;2023-07-24T03:08:46;17.10;99.90
74513;DHT22;62992;52.052;8.550;2023-07-24T03:11:30;17.10;99.90
74513;DHT22;62992;52.052;8.550;2023-07-24T03:14:14;17.10;99.90
74513;DHT22;62992;52.052;8.550;2023-07-24T03:16:58;17.10;99.90
74513;DHT22;62992;52.052;8.550;2023-07-24T03:19:42;17.10;99.90
74513;DHT22;62992;52.052;8.550;2023-07-24T03:22:27;17.10;99.90
74513;DHT22;62992;52.052;8.550;2023-07-24T03:25:11;17.10;99.90
74513;DHT22;62992;52.052;8.550;2023-07-24T03:27:55;17.10;99.90
74513;DHT22;62992;52.052;8.550;2023-07-24T03:30:39;17.20;99.90
74513;DHT22;62992;52.052;8.550;2023-07-24T03:33:23;17.20;99.90
74513;DHT22;62992;52.052;8.550;2023-07-24T03:36:08;17.10;99.90
74513;DHT22;62992;52.052;8.550;2023-07-24T03:38:52;17.10;99.90
74513;DHT22;62992;52.052;8.550;2023-07-24T03:41:36;17.10;99.90
74513;DHT22;62992;52.052;8.550;2023-07-24T03:44:20;17.10;99.90
74513;DHT22;62992;52.052;8.550;2023-07-24T03:47:04;17.20;99.90
74513;DHT22;62992;52.052;8.550;2023-07-24T03:49:49;17.20;99.90
74513;DHT22;62992;52.052;8.550;2023-07-24T03:52:33;17.20;99.90
74513;DHT22;62992;52.052;8.550;2023-07-24T03:55:17;17.30;99.90
74513;DHT22;62992;52.052;8.550;2023-07-24T03:58:01;17.30;99.90
74513;DHT22;62992;52.052;8.550;2023-07-24T04:00:45;17.30;99.90
74513;DHT22;62992;52.052;8.550;2023-07-24T04:03:29;17.30;99.90
74513;DHT22;62992;52.052;8.550;2023-07-24T04:06:14;17.40;99.90
74513;DHT22;62992;52.052;8.550;2023-07-24T04:08:58;17.40;99.90
74513;DHT22;62992;52.052;8.550;2023-07-24T04:11:42;17.40;99.90
74513;DHT22;62992;52.052;8.550;2023-07-24T04:14:27;17.40;99.90
74513;DHT22;62992;52.052;8.550;2023-07-24T04:17:11;17.40;99.90
74513;DHT22;62992;52.052;8.550;2023-07-24T04:19:55;17.40;99.90
74513;DHT22;62992;52.052;8.550;2023-07-24T04:22:39;17.40;99.90
74513;DHT22;62992;52.052;8.550;2023-07-24T04:25:23;17.50;99.90
74513;DHT22;62992;52.052;8.550;2023-07-24T04:28:08;17.60;99.90
74513;DHT22;62992;52.052;8.550;2023-07-24T04:30:52;17.60;99.90
74513;DHT22;62992;52.052;8.550;2023-07-24T04:33:36;17.60;99.90
74513;DHT22;62992;52.052;8.550;2023-07-24T04:36:20;17.60;99.90
74513;DHT22;62992;52.052;8.550;2023-07-24T04:39:05;17.70;99.90
74513;DHT22;62992;52.052;8.550;2023-07-24T04:41:49;17.60;99.90
74513;DHT22;62992;52.052;8.550;2023-07-24T04:44:33;17.60;99.90
74513;DHT22;62992;52.052;8.550;2023-07-24T04:47:17;17.60;99.90
74513;DHT22;62992;52.052;8.550;2023-07-24T04:50:01;17.60;99.90
74513;DHT22;62992;52.052;8.550;2023-07-24T04:52:45;17.60;99.90
74513;DHT22;62992;52.052;8.550;2023-07-24T04:55:30;17.60;99.90
74513;DHT22;62992;52.052;8.550;2023-07-24T04:58:14;17.70;99.90
74513;DHT22;62992;52.052;8.550;2023-07-24T05:01:01;17.70;99.90
74513;DHT22;62992;52.052;8.550;2023-07-24T05:03:45;17.70;99.90
74513;DHT22;62992;52.052;8.550;2023-07-24T05:06:30;17.70;99.90
74513;DHT22;62992;52.052;8.550;2023-07-24T05:09:14;17.70;99.90
74513;DHT22;62992;52.052;8.550;2023-07-24T05:11:58;17.80;99.90
74513;DHT22;62992;52.052;8.550;2023-07-24T05:14:42;17.70;99.90
74513;DHT22;62992;52.052;8.550;2023-07-24T05:17:26;17.70;99.90
74513;DHT22;62992;52.052;8.550;2023-07-24T05:20:11;17.70;99.90
74513;DHT22;62992;52.052;8.550;2023-07-24T05:22:55;17.70;99.90
74513;DHT22;62992;52.052;8.550;2023-07-24T05:25:39;17.70;99.90
74513;DHT22;62992;52.052;8.550;2023-07-24T05:28:23;17.60;99.90
74513;DHT22;62992;52.052;8.550;2023-07-24T05:31:09;17.40;99.90
74513;DHT22;62992;52.052;8.550;2023-07-24T05:33:53;17.30;99.90
74513;DHT22;62992;52.052;8.550;2023-07-24T05:36:37;17.30;99.90
74513;DHT22;62992;52.052;8.550;2023-07-24T05:39:22;17.30;99.90
74513;DHT22;62992;52.052;8.550;2023-07-24T05:42:06;17.20;99.90
74513;DHT22;62992;52.052;8.550;2023-07-24T05:44:50;17.20;99.90
74513;DHT22;62992;52.052;8.550;2023-07-24T05:47:34;17.30;99.90
74513;DHT22;62992;52.052;8.550;2023-07-24T05:50:18;17.30;99.90
74513;DHT22;62992;52.052;8.550;2023-07-24T05:53:02;17.20;99.90
74513;DHT22;62992;52.052;8.550;2023-07-24T05:55:47;17.10;99.90
74513;DHT22;62992;52.052;8.550;2023-07-24T05:58:31;17.10;99.90
74513;DHT22;62992;52.052;8.550;2023-07-24T06:01:15;17.10;99.90
74513;DHT22;62992;52.052;8.550;2023-07-24T06:03:59;17.00;99.90
74513;DHT22;62992;52.052;8.550;2023-07-24T06:06:44;17.10;99.90
74513;DHT22;62992;52.052;8.550;2023-07-24T06:09:28;17.10;99.90
74513;DHT22;62992;52.052;8.550;2023-07-24T06:12:12;17.10;99.90
74513;DHT22;62992;52.052;8.550;2023-07-24T06:14:56;17.10;99.90
74513;DHT22;62992;52.052;8.550;2023-07-24T06:17:40;17.10;99.90
74513;DHT22;62992;52.052;8.550;2023-07-24T06:20:24;17.10;99.90
74513;DHT22;62992;52.052;8.550;2023-07-24T06:23:08;17.10;99.90
74513;DHT22;62992;52.052;8.550;2023-07-24T06:25:52;17.10;99.90
74513;DHT22;62992;52.052;8.550;2023-07-24T06:28:37;17.00;99.90
74513;DHT22;62992;52.052;8.550;2023-07-24T06:31:21;17.10;99.90
74513;DHT22;62992;52.052;8.550;2023-07-24T06:34:06;17.20;99.90
74513;DHT22;62992;52.052;8.550;2023-07-24T06:36:50;17.20;99.90
74513;DHT22;62992;52.052;8.550;2023-07-24T06:39:34;17.20;99.90
74513;DHT22;62992;52.052;8.550;2023-07-24T06:42:18;17.20;99.90
74513;DHT22;62992;52.052;8.550;2023-07-24T06:45:02;17.20;99.90
74513;DHT22;62992;52.052;8.550;2023-07-24T06:47:46;17.30;99.90
74513;DHT22;62992;52.052;8.550;2023-07-24T06:50:31;17.30;99.90
74513;DHT22;62992;52.052;8.550;2023-07-24T06:53:15;17.20;99.90
74513;DHT22;62992;52.052;8.550;2023-07-24T06:55:59;17.20;99.90
74513;DHT22;62992;52.052;8.550;2023-07-24T06:58:43;17.30;99.90
74513;DHT22;62992;52.052;8.550;2023-07-24T07:01:28;17.30;99.90
74513;DHT22;62992;52.052;8.550;2023-07-24T07:04:12;17.30;99.90
74513;DHT22;62992;52.052;8.550;2023-07-24T07:06:56;17.40;99.90
74513;DHT22;62992;52.052;8.550;2023-07-24T07:09:40;17.50;99.90
74513;DHT22;62992;52.052;8.550;2023-07-24T07:12:24;17.60;99.90
74513;DHT22;62992;52.052;8.550;2023-07-24T07:15:09;17.60;99.90
74513;DHT22;62992;52.052;8.550;2023-07-24T07:17:53;17.80;99.90
74513;DHT22;62992;52.052;8.550;2023-07-24T07:20:37;19.20;99.90
74513;DHT22;62992;52.052;8.550;2023-07-24T07:23:21;19.70;99.90
74513;DHT22;62992;52.052;8.550;2023-07-24T07:26:06;19.30;99.90
74513;DHT22;62992;52.052;8.550;2023-07-24T07:28:50;20.10;99.90
74513;DHT22;62992;52.052;8.550;2023-07-24T07:31:35;19.30;99.90
74513;DHT22;62992;52.052;8.550;2023-07-24T07:34:19;19.00;99.90
74513;DHT22;62992;52.052;8.550;2023-07-24T07:37:03;18.60;99.90
74513;DHT22;62992;52.052;8.550;2023-07-24T07:39:47;18.50;99.90
74513;DHT22;62992;52.052;8.550;2023-07-24T07:42:31;18.60;99.90
74513;DHT22;62992;52.052;8.550;2023-07-24T07:45:15;18.50;99.90
74513;DHT22;62992;52.052;8.550;2023-07-24T07:47:59;18.50;99.90
74513;DHT22;62992;52.052;8.550;2023-07-24T07:50:44;18.40;99.90
74513;DHT22;62992;52.052;8.550;2023-07-24T07:53:28;18.40;99.90
74513;DHT22;62992;52.052;8.550;2023-07-24T07:56:12;18.40;99.90
74513;DHT22;62992;52.052;8.550;2023-07-24T07:58:56;18.50;99.90
74513;DHT22;62992;52.052;8.550;2023-07-24T08:01:40;18.40;99.90
74513;DHT22;62992;52.052;8.550;2023-07-24T08:04:25;18.40;99.90
74513;DHT22;62992;52.052;8.550;2023-07-24T08:07:10;18.50;99.90
74513;DHT22;62992;52.052;8.550;2023-07-24T08:09:54;18.40;99.90
74513;DHT22;62992;52.052;8.550;2023-07-24T08:12:38;18.50;99.90
74513;DHT22;62992;52.052;8.550;2023-07-24T08:15:22;18.50;99.90
74513;DHT22;62992;52.052;8.550;2023-07-24T08:18:06;18.70;99.90
74513;DHT22;62992;52.052;8.550;2023-07-24T08:20:51;18.60;99.90
74513;DHT22;62992;52.052;8.550;2023-07-24T08:23:35;18.80;99.90
74513;DHT22;62992;52.052;8.550;2023-07-24T08:26:19;18.70;99.90
74513;DHT22;62992;52.052;8.550;2023-07-24T08:29:03;18.60;99.90
74513;DHT22;62992;52.052;8.550;2023-07-24T08:31:48;18.70;99.90
74513;DHT22;62992;52.052;8.550;2023-07-24T08:34:32;18.60;99.90
74513;DHT22;62992;52.052;8.550;2023-07-24T08:37:16;18.60;99.90
74513;DHT22;62992;52.052;8.550;2023-07-24T08:40:00;18.70;99.90
74513;DHT22;62992;52.052;8.550;2023-07-24T08:42:44;18.80;99.90
74513;DHT22;62992;52.052;8.550;2023-07-24T08:45:30;18.80;99.90
74513;DHT22;62992;52.052;8.550;2023-07-24T08:48:14;18.80;99.90
74513;DHT22;62992;52.052;8.550;2023-07-24T08:50:59;18.80;99.90
74513;DHT22;62992;52.052;8.550;2023-07-24T08:53:44;18.80;99.90
74513;DHT22;62992;52.052;8.550;2023-07-24T08:56:28;18.90;99.90
74513;DHT22;62992;52.052;8.550;2023-07-24T08:59:12;18.90;99.90
74513;DHT22;62992;52.052;8.550;2023-07-24T09:01:56;19.20;99.90
74513;DHT22;62992;52.052;8.550;2023-07-24T09:04:40;19.50;99.90
74513;DHT22;62992;52.052;8.550;2023-07-24T09:07:25;19.60;99.90
74513;DHT22;62992;52.052;8.550;2023-07-24T09:10:09;19.50;99.90
74513;DHT22;62992;52.052;8.550;2023-07-24T09:12:53;19.70;99.90
74513;DHT22;62992;52.052;8.550;2023-07-24T09:15:41;19.90;99.90
74513;DHT22;62992;52.052;8.550;2023-07-24T09:18:25;19.80;99.90
74513;DHT22;62992;52.052;8.550;2023-07-24T09:21:09;20.40;99.90
74513;DHT22;62992;52.052;8.550;2023-07-24T09:23:55;20.40;99.90
74513;DHT22;62992;52.052;8.550;2023-07-24T09:26:49;20.40;99.90
74513;DHT22;62992;52.052;8.550;2023-07-24T09:29:34;20.00;99.90
74513;DHT22;62992;52.052;8.550;2023-07-24T09:32:19;19.80;99.90
74513;DHT22;62992;52.052;8.550;2023-07-24T09:35:04;19.70;99.90
74513;DHT22;62992;52.052;8.550;2023-07-24T09:37:48;19.90;99.90
74513;DHT22;62992;52.052;8.550;2023-07-24T09:40:42;20.30;99.90
74513;DHT22;62992;52.052;8.550;2023-07-24T09:43:27;20.70;99.90
74513;DHT22;62992;52.052;8.550;2023-07-24T09:46:12;20.50;99.90
74513;DHT22;62992;52.052;8.550;2023-07-24T09:48:56;20.40;99.90
74513;DHT22;62992;52.052;8.550;2023-07-24T09:51:41;20.00;99.90
74513;DHT22;62992;52.052;8.550;2023-07-24T09:54:28;20.00;99.90
74513;DHT22;62992;52.052;8.550;2023-07-24T09:57:14;20.00;99.90
74513;DHT22;62992;52.052;8.550;2023-07-24T10:00:00;20.50;99.90
74513;DHT22;62992;52.052;8.550;2023-07-24T10:02:44;22.20;99.90
74513;DHT22;62992;52.052;8.550;2023-07-24T10:05:28;23.40;99.90
74513;DHT22;62992;52.052;8.550;2023-07-24T10:08:17;23.20;99.90
74513;DHT22;62992;52.052;8.550;2023-07-24T10:11:01;22.60;99.90
74513;DHT22;62992;52.052;8.550;2023-07-24T10:13:45;22.20;99.90
74513;DHT22;62992;52.052;8.550;2023-07-24T10:16:30;22.50;99.90
74513;DHT22;62992;52.052;8.550;2023-07-24T10:19:14;23.70;99.90
74513;DHT22;62992;52.052;8.550;2023-07-24T10:22:00;23.70;99.90
74513;DHT22;62992;52.052;8.550;2023-07-24T10:24:46;22.70;99.90
74513;DHT22;62992;52.052;8.550;2023-07-24T10:27:31;21.90;99.90
74513;DHT22;62992;52.052;8.550;2023-07-24T10:30:15;21.90;99.90
74513;DHT22;62992;52.052;8.550;2023-07-24T10:33:07;21.10;99.90
74513;DHT22;62992;52.052;8.550;2023-07-24T10:36:02;21.50;99.90
74513;DHT22;62992;52.052;8.550;2023-07-24T10:38:51;22.20;99.90
74513;DHT22;62992;52.052;8.550;2023-07-24T10:41:36;22.70;99.90
74513;DHT22;62992;52.052;8.550;2023-07-24T10:44:29;21.70;99.90
74513;DHT22;62992;52.052;8.550;2023-07-24T10:47:13;21.10;99.90
74513;DHT22;62992;52.052;8.550;2023-07-24T10:49:57;20.90;99.90
74513;DHT22;62992;52.052;8.550;2023-07-24T10:52:42;20.90;99.90
74513;DHT22;62992;52.052;8.550;2023-07-24T10:55:26;21.00;99.90
74513;DHT22;62992;52.052;8.550;2023-07-24T10:58:11;21.10;99.90
74513;DHT22;62992;52.052;8.550;2023-07-24T11:00:55;21.10;99.90
74513;DHT22;62992;52.052;8.550;2023-07-24T11:03:40;21.20;99.90
74513;DHT22;62992;52.052;8.550;2023-07-24T11:06:25;21.00;99.90
74513;DHT22;62992;52.052;8.550;2023-07-24T11:09:09;20.60;99.90
74513;DHT22;62992;52.052;8.550;2023-07-24T11:11:53;20.20;99.90
74513;DHT22;62992;52.052;8.550;2023-07-24T11:14:50;20.00;99.90
74513;DHT22;62992;52.052;8.550;2023-07-24T11:17:35;19.90;99.90
74513;DHT22;62992;52.052;8.550;2023-07-24T11:20:20;20.00;99.90
74513;DHT22;62992;52.052;8.550;2023-07-24T11:23:05;20.00;99.90
74513;DHT22;62992;52.052;8.550;2023-07-24T11:25:52;19.90;99.90
74513;DHT22;62992;52.052;8.550;2023-07-24T11:28:40;19.90;99.90
74513;DHT22;62992;52.052;8.550;2023-07-24T11:31:24;20.00;99.90
74513;DHT22;62992;52.052;8.550;2023-07-24T11:34:08;20.10;99.90
74513;DHT22;62992;52.052;8.550;2023-07-24T11:36:53;20.10;99.90
74513;DHT22;62992;52.052;8.550;2023-07-24T11:39:37;20.20;99.90
74513;DHT22;62992;52.052;8.550;2023-07-24T11:42:21;20.50;99.90
74513;DHT22;62992;52.052;8.550;2023-07-24T11:45:08;20.60;99.90
74513;DHT22;62992;52.052;8.550;2023-07-24T11:47:55;20.40;99.90
74513;DHT22;62992;52.052;8.550;2023-07-24T11:50:43;20.10;99.90
74513;DHT22;62992;52.052;8.550;2023-07-24T11:53:29;19.90;99.90
74513;DHT22;62992;52.052;8.550;2023-07-24T11:56:14;19.80;99.90
74513;DHT22;62992;52.052;8.550;2023-07-24T11:59:08;19.60;99.90
74513;DHT22;62992;52.052;8.550;2023-07-24T12:01:52;20.20;99.90
74513;DHT22;62992;52.052;8.550;2023-07-24T12:04:37;20.90;99.90
74513;DHT22;62992;52.052;8.550;2023-07-24T12:07:21;20.70;99.90
74513;DHT22;62992;52.052;8.550;2023-07-24T12:10:05;20.40;99.90
74513;DHT22;62992;52.052;8.550;2023-07-24T12:12:53;20.50;99.90
74513;DHT22;62992;52.052;8.550;2023-07-24T12:15:38;20.80;99.90
74513;DHT22;62992;52.052;8.550;2023-07-24T12:18:22;21.00;99.90
74513;DHT22;62992;52.052;8.550;2023-07-24T12:21:06;21.10;99.90
74513;DHT22;62992;52.052;8.550;2023-07-24T12:23:51;21.00;99.90
74513;DHT22;62992;52.052;8.550;2023-07-24T12:26:35;20.80;99.90
74513;DHT22;62992;52.052;8.550;2023-07-24T12:29:19;20.70;99.90
74513;DHT22;62992;52.052;8.550;2023-07-24T12:32:03;20.50;99.90
74513;DHT22;62992;52.052;8.550;2023-07-24T12:34:48;20.40;99.90
74513;DHT22;62992;52.052;8.550;2023-07-24T12:37:32;20.20;99.90
74513;DHT22;62992;52.052;8.550;2023-07-24T12:40:16;20.00;99.90
74513;DHT22;62992;52.052;8.550;2023-07-24T12:43:00;19.80;99.90
74513;DHT22;62992;52.052;8.550;2023-07-24T12:45:45;19.70;99.90
74513;DHT22;62992;52.052;8.550;2023-07-24T12:48:29;19.60;99.90
74513;DHT22;62992;52.052;8.550;2023-07-24T12:51:15;19.40;99.90
74513;DHT22;62992;52.052;8.550;2023-07-24T12:53:59;19.30;99.90
74513;DHT22;62992;52.052;8.550;2023-07-24T12:56:44;19.10;99.90
74513;DHT22;62992;52.052;8.550;2023-07-24T12:59:28;19.10;99.90
74513;DHT22;62992;52.052;8.550;2023-07-24T13:02:12;18.90;99.90
74513;DHT22;62992;52.052;8.550;2023-07-24T13:04:56;18.70;99.90
74513;DHT22;62992;52.052;8.550;2023-07-24T13:07:41;18.60;99.90
74513;DHT22;62992;52.052;8.550;2023-07-24T13:10:25;18.40;99.90
74513;DHT22;62992;52.052;8.550;2023-07-24T13:13:09;18.50;99.90
74513;DHT22;62992;52.052;8.550;2023-07-24T13:15:53;18.50;99.90
74513;DHT22;62992;52.052;8.550;2023-07-24T13:18:37;18.40;99.90
74513;DHT22;62992;52.052;8.550;2023-07-24T13:21:22;18.50;99.90
74513;DHT22;62992;52.052;8.550;2023-07-24T13:24:07;18.40;99.90
74513;DHT22;62992;52.052;8.550;2023-07-24T13:26:51;18.40;99.90
74513;DHT22;62992;52.052;8.550;2023-07-24T13:29:36;18.30;99.90
74513;DHT22;62992;52.052;8.550;2023-07-24T13:32:20;18.30;99.90
74513;DHT22;62992;52.052;8.550;2023-07-24T13:35:04;18.30;99.90
74513;DHT22;62992;52.052;8.550;2023-07-24T13:37:48;18.30;99.90
74513;DHT22;62992;52.052;8.550;2023-07-24T13:40:33;18.30;99.90
74513;DHT22;62992;52.052;8.550;2023-07-24T13:43:17;18.30;99.90
74513;DHT22;62992;52.052;8.550;2023-07-24T13:46:02;18.30;99.90
74513;DHT22;62992;52.052;8.550;2023-07-24T13:48:46;18.40;99.90
74513;DHT22;62992;52.052;8.550;2023-07-24T13:51:30;18.40;99.90
74513;DHT22;62992;52.052;8.550;2023-07-24T13:54:15;18.40;99.90
74513;DHT22;62992;52.052;8.550;2023-07-24T13:56:59;18.30;99.90
74513;DHT22;62992;52.052;8.550;2023-07-24T13:59:43;18.30;99.90
74513;DHT22;62992;52.052;8.550;2023-07-24T14:02:27;18.40;99.90
74513;DHT22;62992;52.052;8.550;2023-07-24T14:05:12;18.60;99.90
74513;DHT22;62992;52.052;8.550;2023-07-24T14:07:56;18.70;99.90
74513;DHT22;62992;52.052;8.550;2023-07-24T14:10:40;18.60;99.90
74513;DHT22;62992;52.052;8.550;2023-07-24T14:13:24;18.50;99.90
74513;DHT22;62992;52.052;8.550;2023-07-24T14:16:08;18.70;99.90
74513;DHT22;62992;52.052;8.550;2023-07-24T14:18:53;18.90;99.90
74513;DHT22;62992;52.052;8.550;2023-07-24T14:21:37;19.10;99.90
74513;DHT22;62992;52.052;8.550;2023-07-24T14:24:21;19.30;99.90
74513;DHT22;62992;52.052;8.550;2023-07-24T14:27:05;19.70;99.90
74513;DHT22;62992;52.052;8.550;2023-07-24T14:29:50;19.60;99.90
74513;DHT22;62992;52.052;8.550;2023-07-24T14:32:34;19.70;99.90
74513;DHT22;62992;52.052;8.550;2023-07-24T14:35:18;19.60;99.90
74513;DHT22;62992;52.052;8.550;2023-07-24T14:38:02;19.90;99.90
74513;DHT22;62992;52.052;8.550;2023-07-24T14:40:46;20.10;99.90
74513;DHT22;62992;52.052;8.550;2023-07-24T14:43:31;20.00;99.90
74513;DHT22;62992;52.052;8.550;2023-07-24T14:46:15;19.80;99.90
74513;DHT22;62992;52.052;8.550;2023-07-24T14:48:59;19.70;99.90
74513;DHT22;62992;52.052;8.550;2023-07-24T14:51:43;19.60;99.90
74513;DHT22;62992;52.052;8.550;2023-07-24T14:54:27;19.60;99.90
74513;DHT22;62992;52.052;8.550;2023-07-24T14:57:11;19.40;99.90
74513;DHT22;62992;52.052;8.550;2023-07-24T14:59:56;19.40;99.90
74513;DHT22;62992;52.052;8.550;2023-07-24T15:02:40;19.40;99.90
74513;DHT22;62992;52.052;8.550;2023-07-24T15:05:24;19.40;99.90
74513;DHT22;62992;52.052;8.550;2023-07-24T15:08:08;19.50;99.90
74513;DHT22;62992;52.052;8.550;2023-07-24T15:10:53;19.50;99.90
74513;DHT22;62992;52.052;8.550;2023-07-24T15:13:37;19.40;99.90
74513;DHT22;62992;52.052;8.550;2023-07-24T15:16:21;19.50;99.90
74513;DHT22;62992;52.052;8.550;2023-07-24T15:19:05;19.60;99.90
74513;DHT22;62992;52.052;8.550;2023-07-24T15:21:49;19.70;99.90
74513;DHT22;62992;52.052;8.550;2023-07-24T15:24:33;19.70;99.90
74513;DHT22;62992;52.052;8.550;2023-07-24T15:27:18;19.80;99.90
74513;DHT22;62992;52.052;8.550;2023-07-24T15:30:02;19.90;99.90
74513;DHT22;62992;52.052;8.550;2023-07-24T15:32:46;19.90;99.90
74513;DHT22;62992;52.052;8.550;2023-07-24T15:35:30;19.80;99.90
74513;DHT22;62992;52.052;8.550;2023-07-24T15:38:14;19.90;99.90
74513;DHT22;62992;52.052;8.550;2023-07-24T15:40:58;19.70;99.90
74513;DHT22;62992;52.052;8.550;2023-07-24T15:43:43;19.50;99.90
74513;DHT22;62992;52.052;8.550;2023-07-24T15:46:27;19.60;99.90
74513;DHT22;62992;52.052;8.550;2023-07-24T15:49:15;19.60;99.90
74513;DHT22;62992;52.052;8.550;2023-07-24T15:51:59;19.50;99.90
74513;DHT22;62992;52.052;8.550;2023-07-24T15:54:44;19.40;99.90
74513;DHT22;62992;52.052;8.550;2023-07-24T15:57:28;19.30;99.90
74513;DHT22;62992;52.052;8.550;2023-07-24T16:00:12;19.40;99.90
74513;DHT22;62992;52.052;8.550;2023-07-24T16:02:56;19.40;99.90
74513;DHT22;62992;52.052;8.550;2023-07-24T16:05:41;19.40;99.90
74513;DHT22;62992;52.052;8.550;2023-07-24T16:08:25;19.30;99.90
74513;DHT22;62992;52.052;8.550;2023-07-24T16:11:09;19.20;99.90
74513;DHT22;62992;52.052;8.550;2023-07-24T16:13:53;19.20;99.90
74513;DHT22;62992;52.052;8.550;2023-07-24T16:16:38;19.10;99.90
74513;DHT22;62992;52.052;8.550;2023-07-24T16:19:22;19.10;99.90
74513;DHT22;62992;52.052;8.550;2023-07-24T16:22:06;19.10;99.90
74513;DHT22;62992;52.052;8.550;2023-07-24T16:24:50;19.10;99.90
74513;DHT22;62992;52.052;8.550;2023-07-24T16:27:35;19.10;99.90
74513;DHT22;62992;52.052;8.550;2023-07-24T16:30:19;19.00;99.90
74513;DHT22;62992;52.052;8.550;2023-07-24T16:33:03;19.00;99.90
74513;DHT22;62992;52.052;8.550;2023-07-24T16:35:47;19.10;99.90
74513;DHT22;62992;52.052;8.550;2023-07-24T16:38:31;19.00;99.90
74513;DHT22;62992;52.052;8.550;2023-07-24T16:41:17;19.00;99.90
74513;DHT22;62992;52.052;8.550;2023-07-24T16:44:01;19.20;99.90
74513;DHT22;62992;52.052;8.550;2023-07-24T16:46:45;19.20;99.90
74513;DHT22;62992;52.052;8.550;2023-07-24T16:49:30;19.30;99.90
74513;DHT22;62992;52.052;8.550;2023-07-24T16:52:14;19.40;99.90
74513;DHT22;62992;52.052;8.550;2023-07-24T16:54:58;19.30;99.90
74513;DHT22;62992;52.052;8.550;2023-07-24T16:57:42;19.20;99.90
74513;DHT22;62992;52.052;8.550;2023-07-24T17:00:27;19.10;99.90
74513;DHT22;62992;52.052;8.550;2023-07-24T17:03:12;18.90;99.90
74513;DHT22;62992;52.052;8.550;2023-07-24T17:05:56;18.60;99.90
74513;DHT22;62992;52.052;8.550;2023-07-24T17:08:40;18.50;99.90
74513;DHT22;62992;52.052;8.550;2023-07-24T17:11:24;18.40;99.90
74513;DHT22;62992;52.052;8.550;2023-07-24T17:14:08;18.40;99.90
74513;DHT22;62992;52.052;8.550;2023-07-24T17:16:53;18.40;99.90
74513;DHT22;62992;52.052;8.550;2023-07-24T17:19:37;18.50;99.90
74513;DHT22;62992;52.052;8.550;2023-07-24T17:22:21;18.40;99.90